sensor_id;sensor_type;location;lat;lon;timestamp;P1;durP1;ratioP1;P2;durP2;ratioP2
48574;SDS011;34352;51.084;3.712;2022-11-04T00:02:03;8.77;;;4.85;;
48574;SDS011;34352;51.084;3.712;2022-11-04T00:04:29;10.60;;;5.15;;
48574;SDS011;34352;51.084;3.712;2022-11-04T00:06:55;7.57;;;4.78;;
48574;SDS011;34352;51.084;3.712;2022-11-04T00:09:22;10.23;;;5.10;;
48574;SDS011;34352;51.084;3.712;2022-11-04T00:11:53;9.55;;;5.13;;
48574;SDS011;34352;51.084;3.712;2022-11-04T00:14:39;10.00;;;5.28;;
48574;SDS011;34352;51.084;3.712;2022-11-04T00:17:10;8.07;;;4.80;;
48574;SDS011;34352;51.084;3.712;2022-11-04T00:19:50;10.40;;;4.80;;
48574;SDS011;34352;51.084;3.712;2022-11-04T00:22:36;9.18;;;4.70;;
48574;SDS011;34352;51.084;3.712;2022-11-04T00:25:21;15.02;;;4.97;;
48574;SDS011;34352;51.084;3.712;2022-11-04T00:28:16;9.15;;;4.63;;
48574;SDS011;34352;51.084;3.712;2022-11-04T00:31:02;7.82;;;4.88;;
48574;SDS011;34352;51.084;3.712;2022-11-04T00:33:51;11.20;;;4.65;;
48574;SDS011;34352;51.084;3.712;2022-11-04T00:36:18;8.18;;;4.28;;
48574;SDS011;34352;51.084;3.712;2022-11-04T00:38:46;12.05;;;4.63;;
48574;SDS011;34352;51.084;3.712;2022-11-04T00:41:12;16.50;;;4.75;;
48574;SDS011;34352;51.084;3.712;2022-11-04T00:43:56;12.10;;;4.43;;
48574;SDS011;34352;51.084;3.712;2022-11-04T00:46:26;6.85;;;4.30;;
48574;SDS011;34352;51.084;3.712;2022-11-04T00:48:54;7.57;;;4.60;;
48574;SDS011;34352;51.084;3.712;2022-11-04T00:51:21;11.02;;;4.47;;
48574;SDS011;34352;51.084;3.712;2022-11-04T00:53:48;8.13;;;4.75;;
48574;SDS011;34352;51.084;3.712;2022-11-04T00:56:15;11.57;;;4.70;;
48574;SDS011;34352;51.084;3.712;2022-11-04T00:58:41;9.48;;;5.15;;
48574;SDS011;34352;51.084;3.712;2022-11-04T01:01:08;10.35;;;4.97;;
48574;SDS011;34352;51.084;3.712;2022-11-04T01:03:35;7.30;;;4.28;;
48574;SDS011;34352;51.084;3.712;2022-11-04T01:06:02;9.05;;;4.30;;
48574;SDS011;34352;51.084;3.712;2022-11-04T01:08:28;9.15;;;4.03;;
48574;SDS011;34352;51.084;3.712;2022-11-04T01:10:59;8.05;;;3.80;;
48574;SDS011;34352;51.084;3.712;2022-11-04T01:13:26;10.27;;;4.05;;
48574;SDS011;34352;51.084;3.712;2022-11-04T01:15:56;10.10;;;4.03;;
48574;SDS011;34352;51.084;3.712;2022-11-04T01:18:26;7.20;;;4.15;;
48574;SDS011;34352;51.084;3.712;2022-11-04T01:23:25;7.05;;;3.40;;
48574;SDS011;34352;51.084;3.712;2022-11-04T01:25:51;8.93;;;3.67;;
48574;SDS011;34352;51.084;3.712;2022-11-04T01:28:18;7.55;;;3.60;;
48574;SDS011;34352;51.084;3.712;2022-11-04T01:30:46;12.45;;;4.13;;
48574;SDS011;34352;51.084;3.712;2022-11-04T01:33:12;9.35;;;3.53;;
48574;SDS011;34352;51.084;3.712;2022-11-04T01:35:38;10.82;;;4.03;;
48574;SDS011;34352;51.084;3.712;2022-11-04T01:38:04;9.40;;;3.55;;
48574;SDS011;34352;51.084;3.712;2022-11-04T01:40:34;10.85;;;3.53;;
48574;SDS011;34352;51.084;3.712;2022-11-04T01:43:09;7.43;;;3.17;;
48574;SDS011;34352;51.084;3.712;2022-11-04T01:45:43;11.90;;;3.20;;
48574;SDS011;34352;51.084;3.712;2022-11-04T01:48:21;5.57;;;2.85;;
48574;SDS011;34352;51.084;3.712;2022-11-04T01:53:20;7.15;;;2.97;;
48574;SDS011;34352;51.084;3.712;2022-11-04T01:55:50;13.10;;;2.80;;
48574;SDS011;34352;51.084;3.712;2022-11-04T01:58:20;9.23;;;2.75;;
48574;SDS011;34352;51.084;3.712;2022-11-04T02:00:53;13.68;;;2.90;;
48574;SDS011;34352;51.084;3.712;2022-11-04T02:03:31;6.82;;;2.65;;
48574;SDS011;34352;51.084;3.712;2022-11-04T02:06:00;11.30;;;3.33;;
48574;SDS011;34352;51.084;3.712;2022-11-04T02:08:27;13.32;;;2.88;;
48574;SDS011;34352;51.084;3.712;2022-11-04T02:11:00;8.90;;;2.63;;
48574;SDS011;34352;51.084;3.712;2022-11-04T02:13:29;10.80;;;3.15;;
48574;SDS011;34352;51.084;3.712;2022-11-04T02:18:53;9.15;;;3.13;;
48574;SDS011;34352;51.084;3.712;2022-11-04T02:27:20;12.40;;;3.00;;
48574;SDS011;34352;51.084;3.712;2022-11-04T02:35:25;8.00;;;2.70;;
48574;SDS011;34352;51.084;3.712;2022-11-04T02:38:13;15.98;;;3.70;;
48574;SDS011;34352;51.084;3.712;2022-11-04T02:43:24;8.95;;;2.97;;
48574;SDS011;34352;51.084;3.712;2022-11-04T02:48:54;12.18;;;2.88;;
48574;SDS011;34352;51.084;3.712;2022-11-04T02:51:40;16.27;;;3.28;;
48574;SDS011;34352;51.084;3.712;2022-11-04T02:54:32;11.07;;;3.13;;
48574;SDS011;34352;51.084;3.712;2022-11-04T02:57:20;12.10;;;3.00;;
48574;SDS011;34352;51.084;3.712;2022-11-04T02:59:55;14.55;;;3.08;;
48574;SDS011;34352;51.084;3.712;2022-11-04T03:02:27;13.48;;;3.33;;
48574;SDS011;34352;51.084;3.712;2022-11-04T03:05:00;12.73;;;3.47;;
48574;SDS011;34352;51.084;3.712;2022-11-04T03:07:31;13.90;;;3.35;;
48574;SDS011;34352;51.084;3.712;2022-11-04T03:10:04;9.15;;;3.50;;
48574;SDS011;34352;51.084;3.712;2022-11-04T03:12:36;14.13;;;3.53;;
48574;SDS011;34352;51.084;3.712;2022-11-04T03:15:08;13.02;;;3.60;;
48574;SDS011;34352;51.084;3.712;2022-11-04T03:17:45;14.23;;;3.45;;
48574;SDS011;34352;51.084;3.712;2022-11-04T03:20:32;10.38;;;3.25;;
48574;SDS011;34352;51.084;3.712;2022-11-04T03:23:03;14.13;;;3.20;;
48574;SDS011;34352;51.084;3.712;2022-11-04T03:25:40;14.93;;;3.70;;
48574;SDS011;34352;51.084;3.712;2022-11-04T03:28:19;12.27;;;3.65;;
48574;SDS011;34352;51.084;3.712;2022-11-04T03:30:54;12.93;;;3.58;;
48574;SDS011;34352;51.084;3.712;2022-11-04T03:33:32;6.93;;;3.00;;
48574;SDS011;34352;51.084;3.712;2022-11-04T03:36:18;10.15;;;3.45;;
48574;SDS011;34352;51.084;3.712;2022-11-04T03:38:48;15.07;;;3.40;;
48574;SDS011;34352;51.084;3.712;2022-11-04T03:41:38;12.75;;;3.78;;
48574;SDS011;34352;51.084;3.712;2022-11-04T03:44:06;14.87;;;3.53;;
48574;SDS011;34352;51.084;3.712;2022-11-04T03:46:32;13.70;;;3.50;;
48574;SDS011;34352;51.084;3.712;2022-11-04T03:48:59;14.25;;;3.88;;
48574;SDS011;34352;51.084;3.712;2022-11-04T03:51:27;14.88;;;3.63;;
48574;SDS011;34352;51.084;3.712;2022-11-04T03:53:54;11.65;;;3.60;;
48574;SDS011;34352;51.084;3.712;2022-11-04T04:00:03;13.82;;;3.83;;
48574;SDS011;34352;51.084;3.712;2022-11-04T04:02:34;10.20;;;3.72;;
48574;SDS011;34352;51.084;3.712;2022-11-04T04:05:11;14.68;;;4.15;;
48574;SDS011;34352;51.084;3.712;2022-11-04T04:07:50;13.23;;;4.13;;
48574;SDS011;34352;51.084;3.712;2022-11-04T04:13:16;15.68;;;4.10;;
48574;SDS011;34352;51.084;3.712;2022-11-04T04:16:32;15.10;;;3.90;;
48574;SDS011;34352;51.084;3.712;2022-11-04T04:19:12;12.82;;;4.05;;
48574;SDS011;34352;51.084;3.712;2022-11-04T04:21:47;15.65;;;4.30;;
48574;SDS011;34352;51.084;3.712;2022-11-04T04:24:18;16.63;;;4.20;;
48574;SDS011;34352;51.084;3.712;2022-11-04T04:27:08;16.10;;;4.32;;
48574;SDS011;34352;51.084;3.712;2022-11-04T04:29:55;15.85;;;4.80;;
48574;SDS011;34352;51.084;3.712;2022-11-04T04:32:23;14.95;;;4.55;;
48574;SDS011;34352;51.084;3.712;2022-11-04T04:34:52;14.45;;;4.50;;
48574;SDS011;34352;51.084;3.712;2022-11-04T04:37:41;12.68;;;4.50;;
48574;SDS011;34352;51.084;3.712;2022-11-04T04:40:09;13.02;;;4.20;;
48574;SDS011;34352;51.084;3.712;2022-11-04T04:43:12;15.88;;;4.70;;
48574;SDS011;34352;51.084;3.712;2022-11-04T04:46:00;13.93;;;4.25;;
48574;SDS011;34352;51.084;3.712;2022-11-04T04:48:27;18.17;;;4.60;;
48574;SDS011;34352;51.084;3.712;2022-11-04T04:50:54;12.52;;;4.60;;
48574;SDS011;34352;51.084;3.712;2022-11-04T04:53:28;16.08;;;4.93;;
48574;SDS011;34352;51.084;3.712;2022-11-04T04:55:53;12.25;;;4.47;;
48574;SDS011;34352;51.084;3.712;2022-11-04T04:58:21;16.02;;;4.65;;
48574;SDS011;34352;51.084;3.712;2022-11-04T05:00:48;16.92;;;4.47;;
48574;SDS011;34352;51.084;3.712;2022-11-04T05:03:13;12.02;;;4.75;;
48574;SDS011;34352;51.084;3.712;2022-11-04T05:05:40;17.60;;;4.68;;
48574;SDS011;34352;51.084;3.712;2022-11-04T05:08:08;12.50;;;4.93;;
48574;SDS011;34352;51.084;3.712;2022-11-04T05:10:33;15.77;;;5.05;;
48574;SDS011;34352;51.084;3.712;2022-11-04T05:13:00;15.55;;;5.10;;
48574;SDS011;34352;51.084;3.712;2022-11-04T05:18:14;17.58;;;4.88;;
48574;SDS011;34352;51.084;3.712;2022-11-04T05:20:40;15.10;;;5.30;;
48574;SDS011;34352;51.084;3.712;2022-11-04T05:23:06;15.85;;;5.20;;
48574;SDS011;34352;51.084;3.712;2022-11-04T05:25:33;15.70;;;5.53;;
48574;SDS011;34352;51.084;3.712;2022-11-04T05:28:05;16.83;;;5.63;;
48574;SDS011;34352;51.084;3.712;2022-11-04T05:30:32;12.63;;;5.78;;
48574;SDS011;34352;51.084;3.712;2022-11-04T05:33:00;14.63;;;5.93;;
48574;SDS011;34352;51.084;3.712;2022-11-04T05:35:27;15.15;;;5.93;;
48574;SDS011;34352;51.084;3.712;2022-11-04T05:37:55;14.85;;;5.70;;
48574;SDS011;34352;51.084;3.712;2022-11-04T05:40:22;20.02;;;6.50;;
48574;SDS011;34352;51.084;3.712;2022-11-04T05:42:49;22.40;;;7.03;;
48574;SDS011;34352;51.084;3.712;2022-11-04T05:45:15;26.15;;;7.20;;
48574;SDS011;34352;51.084;3.712;2022-11-04T05:47:41;17.25;;;7.30;;
48574;SDS011;34352;51.084;3.712;2022-11-04T05:50:08;16.98;;;6.93;;
48574;SDS011;34352;51.084;3.712;2022-11-04T05:52:35;18.35;;;7.75;;
48574;SDS011;34352;51.084;3.712;2022-11-04T05:55:02;18.25;;;7.32;;
48574;SDS011;34352;51.084;3.712;2022-11-04T05:57:27;17.92;;;7.80;;
48574;SDS011;34352;51.084;3.712;2022-11-04T05:59:53;16.77;;;7.10;;
48574;SDS011;34352;51.084;3.712;2022-11-04T06:02:19;16.10;;;7.05;;
48574;SDS011;34352;51.084;3.712;2022-11-04T06:04:45;22.02;;;7.30;;
48574;SDS011;34352;51.084;3.712;2022-11-04T06:07:12;24.17;;;7.15;;
48574;SDS011;34352;51.084;3.712;2022-11-04T06:09:39;19.77;;;7.05;;
48574;SDS011;34352;51.084;3.712;2022-11-04T06:18:47;20.15;;;7.30;;
48574;SDS011;34352;51.084;3.712;2022-11-04T06:21:31;23.20;;;7.80;;
48574;SDS011;34352;51.084;3.712;2022-11-04T06:24:07;18.92;;;7.75;;
48574;SDS011;34352;51.084;3.712;2022-11-04T06:29:55;17.95;;;7.47;;
48574;SDS011;34352;51.084;3.712;2022-11-04T06:35:43;21.02;;;9.25;;
48574;SDS011;34352;51.084;3.712;2022-11-04T06:44:20;20.73;;;8.63;;
48574;SDS011;34352;51.084;3.712;2022-11-04T06:50:08;25.65;;;8.80;;
48574;SDS011;34352;51.084;3.712;2022-11-04T06:55:39;22.85;;;9.15;;
48574;SDS011;34352;51.084;3.712;2022-11-04T06:58:04;18.23;;;8.98;;
48574;SDS011;34352;51.084;3.712;2022-11-04T07:00:30;22.25;;;9.50;;
48574;SDS011;34352;51.084;3.712;2022-11-04T07:03:00;18.48;;;8.90;;
48574;SDS011;34352;51.084;3.712;2022-11-04T07:05:27;22.38;;;9.32;;
48574;SDS011;34352;51.084;3.712;2022-11-04T07:07:55;19.75;;;9.75;;
48574;SDS011;34352;51.084;3.712;2022-11-04T07:10:20;20.17;;;9.57;;
48574;SDS011;34352;51.084;3.712;2022-11-04T07:12:46;24.38;;;9.95;;
48574;SDS011;34352;51.084;3.712;2022-11-04T07:15:13;30.02;;;10.25;;
48574;SDS011;34352;51.084;3.712;2022-11-04T07:17:38;26.10;;;10.00;;
48574;SDS011;34352;51.084;3.712;2022-11-04T07:22:37;19.40;;;9.50;;
48574;SDS011;34352;51.084;3.712;2022-11-04T07:25:03;24.30;;;9.65;;
48574;SDS011;34352;51.084;3.712;2022-11-04T07:27:31;21.35;;;9.82;;
48574;SDS011;34352;51.084;3.712;2022-11-04T07:29:56;20.92;;;10.00;;
48574;SDS011;34352;51.084;3.712;2022-11-04T07:32:22;20.33;;;9.77;;
48574;SDS011;34352;51.084;3.712;2022-11-04T07:34:47;23.40;;;10.18;;
48574;SDS011;34352;51.084;3.712;2022-11-04T07:37:14;24.48;;;9.82;;
48574;SDS011;34352;51.084;3.712;2022-11-04T07:39:40;23.88;;;9.80;;
48574;SDS011;34352;51.084;3.712;2022-11-04T07:42:08;17.90;;;9.90;;
48574;SDS011;34352;51.084;3.712;2022-11-04T07:44:34;19.85;;;9.45;;
48574;SDS011;34352;51.084;3.712;2022-11-04T07:46:59;29.20;;;9.93;;
48574;SDS011;34352;51.084;3.712;2022-11-04T07:49:25;27.30;;;10.77;;
48574;SDS011;34352;51.084;3.712;2022-11-04T07:51:51;23.63;;;9.70;;
48574;SDS011;34352;51.084;3.712;2022-11-04T07:54:16;33.63;;;10.02;;
48574;SDS011;34352;51.084;3.712;2022-11-04T07:56:43;22.88;;;10.48;;
48574;SDS011;34352;51.084;3.712;2022-11-04T07:59:09;23.50;;;11.20;;
48574;SDS011;34352;51.084;3.712;2022-11-04T08:01:35;28.27;;;11.18;;
48574;SDS011;34352;51.084;3.712;2022-11-04T08:04:01;26.35;;;11.85;;
48574;SDS011;34352;51.084;3.712;2022-11-04T08:06:26;29.58;;;13.02;;
48574;SDS011;34352;51.084;3.712;2022-11-04T08:08:54;27.55;;;12.05;;
48574;SDS011;34352;51.084;3.712;2022-11-04T08:11:22;42.42;;;24.13;;
48574;SDS011;34352;51.084;3.712;2022-11-04T08:13:52;38.47;;;15.40;;
48574;SDS011;34352;51.084;3.712;2022-11-04T08:16:20;29.63;;;13.63;;
48574;SDS011;34352;51.084;3.712;2022-11-04T08:18:48;36.42;;;13.90;;
48574;SDS011;34352;51.084;3.712;2022-11-04T08:21:18;28.95;;;13.50;;
48574;SDS011;34352;51.084;3.712;2022-11-04T08:23:45;43.10;;;20.77;;
48574;SDS011;34352;51.084;3.712;2022-11-04T08:26:13;25.48;;;14.90;;
48574;SDS011;34352;51.084;3.712;2022-11-04T08:28:41;36.95;;;14.57;;
48574;SDS011;34352;51.084;3.712;2022-11-04T08:31:08;31.08;;;15.07;;
48574;SDS011;34352;51.084;3.712;2022-11-04T08:33:40;29.80;;;15.63;;
48574;SDS011;34352;51.084;3.712;2022-11-04T08:36:07;27.92;;;14.48;;
48574;SDS011;34352;51.084;3.712;2022-11-04T08:38:36;34.03;;;15.85;;
48574;SDS011;34352;51.084;3.712;2022-11-04T08:41:03;24.17;;;14.80;;
48574;SDS011;34352;51.084;3.712;2022-11-04T08:43:30;28.05;;;14.68;;
48574;SDS011;34352;51.084;3.712;2022-11-04T08:45:58;29.85;;;13.90;;
48574;SDS011;34352;51.084;3.712;2022-11-04T08:48:23;25.85;;;13.23;;
48574;SDS011;34352;51.084;3.712;2022-11-04T08:50:50;24.55;;;13.60;;
48574;SDS011;34352;51.084;3.712;2022-11-04T08:53:18;30.63;;;15.40;;
48574;SDS011;34352;51.084;3.712;2022-11-04T08:55:44;29.67;;;14.85;;
48574;SDS011;34352;51.084;3.712;2022-11-04T08:58:10;24.52;;;14.80;;
48574;SDS011;34352;51.084;3.712;2022-11-04T09:00:36;25.45;;;15.23;;
48574;SDS011;34352;51.084;3.712;2022-11-04T09:03:01;30.42;;;16.48;;
48574;SDS011;34352;51.084;3.712;2022-11-04T09:05:28;29.50;;;17.45;;
48574;SDS011;34352;51.084;3.712;2022-11-04T09:07:54;23.02;;;14.07;;
48574;SDS011;34352;51.084;3.712;2022-11-04T09:10:19;19.85;;;11.65;;
48574;SDS011;34352;51.084;3.712;2022-11-04T09:12:45;23.13;;;11.65;;
48574;SDS011;34352;51.084;3.712;2022-11-04T09:15:12;18.58;;;10.90;;
48574;SDS011;34352;51.084;3.712;2022-11-04T09:17:38;19.70;;;10.95;;
48574;SDS011;34352;51.084;3.712;2022-11-04T09:20:04;20.98;;;10.85;;
48574;SDS011;34352;51.084;3.712;2022-11-04T09:22:31;21.02;;;11.23;;
48574;SDS011;34352;51.084;3.712;2022-11-04T09:24:56;17.77;;;10.93;;
48574;SDS011;34352;51.084;3.712;2022-11-04T09:27:22;20.13;;;11.18;;
48574;SDS011;34352;51.084;3.712;2022-11-04T09:29:48;18.80;;;11.27;;
48574;SDS011;34352;51.084;3.712;2022-11-04T09:32:17;21.08;;;10.90;;
48574;SDS011;34352;51.084;3.712;2022-11-04T09:34:43;22.35;;;10.65;;
48574;SDS011;34352;51.084;3.712;2022-11-04T09:37:08;21.42;;;10.88;;
48574;SDS011;34352;51.084;3.712;2022-11-04T09:39:35;19.70;;;11.23;;
48574;SDS011;34352;51.084;3.712;2022-11-04T09:47:24;25.00;;;13.10;;
48574;SDS011;34352;51.084;3.712;2022-11-04T09:49:52;19.98;;;13.15;;
48574;SDS011;34352;51.084;3.712;2022-11-04T09:52:29;18.73;;;11.52;;
48574;SDS011;34352;51.084;3.712;2022-11-04T09:57:36;18.38;;;11.95;;
48574;SDS011;34352;51.084;3.712;2022-11-04T10:00:02;19.73;;;11.18;;
48574;SDS011;34352;51.084;3.712;2022-11-04T10:03:31;20.35;;;11.82;;
48574;SDS011;34352;51.084;3.712;2022-11-04T10:08:17;15.15;;;11.13;;
48574;SDS011;34352;51.084;3.712;2022-11-04T10:10:52;15.80;;;11.57;;
48574;SDS011;34352;51.084;3.712;2022-11-04T10:13:41;17.50;;;12.02;;
48574;SDS011;34352;51.084;3.712;2022-11-04T10:16:50;18.45;;;11.65;;
48574;SDS011;34352;51.084;3.712;2022-11-04T10:22:15;19.15;;;13.02;;
48574;SDS011;34352;51.084;3.712;2022-11-04T10:27:44;22.08;;;12.07;;
48574;SDS011;34352;51.084;3.712;2022-11-04T10:35:46;21.83;;;13.43;;
48574;SDS011;34352;51.084;3.712;2022-11-04T10:40:47;17.27;;;11.80;;
48574;SDS011;34352;51.084;3.712;2022-11-04T10:43:17;17.90;;;10.57;;
48574;SDS011;34352;51.084;3.712;2022-11-04T10:45:59;17.42;;;11.27;;
48574;SDS011;34352;51.084;3.712;2022-11-04T10:48:49;16.48;;;10.77;;
48574;SDS011;34352;51.084;3.712;2022-11-04T10:51:21;15.38;;;10.10;;
48574;SDS011;34352;51.084;3.712;2022-11-04T10:53:57;15.73;;;10.32;;
48574;SDS011;34352;51.084;3.712;2022-11-04T10:56:27;14.38;;;9.63;;
48574;SDS011;34352;51.084;3.712;2022-11-04T10:59:29;15.93;;;9.57;;
48574;SDS011;34352;51.084;3.712;2022-11-04T11:01:57;12.32;;;8.48;;
48574;SDS011;34352;51.084;3.712;2022-11-04T11:04:26;11.23;;;7.78;;
48574;SDS011;34352;51.084;3.712;2022-11-04T11:06:55;13.77;;;7.45;;
48574;SDS011;34352;51.084;3.712;2022-11-04T11:09:26;15.95;;;7.93;;
48574;SDS011;34352;51.084;3.712;2022-11-04T11:14:37;8.90;;;6.55;;
48574;SDS011;34352;51.084;3.712;2022-11-04T11:19:57;13.30;;;7.30;;
48574;SDS011;34352;51.084;3.712;2022-11-04T11:25:11;10.18;;;7.53;;
48574;SDS011;34352;51.084;3.712;2022-11-04T11:30:53;11.63;;;7.65;;
48574;SDS011;34352;51.084;3.712;2022-11-04T11:33:31;11.75;;;7.38;;
48574;SDS011;34352;51.084;3.712;2022-11-04T11:36:06;12.55;;;7.90;;
48574;SDS011;34352;51.084;3.712;2022-11-04T11:38:51;11.85;;;6.95;;
48574;SDS011;34352;51.084;3.712;2022-11-04T11:41:23;9.90;;;7.13;;
48574;SDS011;34352;51.084;3.712;2022-11-04T11:46:41;11.98;;;7.15;;
48574;SDS011;34352;51.084;3.712;2022-11-04T11:49:21;12.40;;;6.53;;
48574;SDS011;34352;51.084;3.712;2022-11-04T11:51:50;12.57;;;7.50;;
48574;SDS011;34352;51.084;3.712;2022-11-04T11:54:18;14.68;;;7.55;;
48574;SDS011;34352;51.084;3.712;2022-11-04T11:57:02;12.15;;;7.47;;
48574;SDS011;34352;51.084;3.712;2022-11-04T11:59:43;10.27;;;7.30;;
48574;SDS011;34352;51.084;3.712;2022-11-04T12:02:32;10.95;;;6.75;;
48574;SDS011;34352;51.084;3.712;2022-11-04T12:05:18;9.65;;;6.63;;
48574;SDS011;34352;51.084;3.712;2022-11-04T12:10:40;9.73;;;6.15;;
48574;SDS011;34352;51.084;3.712;2022-11-04T12:13:15;12.00;;;6.93;;
48574;SDS011;34352;51.084;3.712;2022-11-04T12:21:27;9.25;;;5.65;;
48574;SDS011;34352;51.084;3.712;2022-11-04T12:57:43;4.60;;;1.90;;
48574;SDS011;34352;51.084;3.712;2022-11-04T13:00:24;4.53;;;1.95;;
48574;SDS011;34352;51.084;3.712;2022-11-04T13:13:50;2.38;;;1.15;;
48574;SDS011;34352;51.084;3.712;2022-11-04T13:16:40;2.78;;;1.33;;
48574;SDS011;34352;51.084;3.712;2022-11-04T13:21:49;4.00;;;1.00;;
48574;SDS011;34352;51.084;3.712;2022-11-04T13:24:49;4.28;;;0.90;;
48574;SDS011;34352;51.084;3.712;2022-11-04T13:27:22;2.00;;;1.10;;
48574;SDS011;34352;51.084;3.712;2022-11-04T13:29:52;1.73;;;0.90;;
48574;SDS011;34352;51.084;3.712;2022-11-04T13:35:52;2.75;;;1.30;;
48574;SDS011;34352;51.084;3.712;2022-11-04T13:38:31;4.88;;;1.27;;
48574;SDS011;34352;51.084;3.712;2022-11-04T13:44:11;2.65;;;0.98;;
48574;SDS011;34352;51.084;3.712;2022-11-04T13:47:03;3.92;;;1.40;;
48574;SDS011;34352;51.084;3.712;2022-11-04T13:49:38;2.70;;;0.90;;
48574;SDS011;34352;51.084;3.712;2022-11-04T13:52:06;3.78;;;1.17;;
48574;SDS011;34352;51.084;3.712;2022-11-04T13:54:56;5.15;;;1.00;;
48574;SDS011;34352;51.084;3.712;2022-11-04T14:00:17;3.17;;;1.33;;
48574;SDS011;34352;51.084;3.712;2022-11-04T14:18:50;5.38;;;1.20;;
48574;SDS011;34352;51.084;3.712;2022-11-04T14:21:21;3.13;;;1.20;;
48574;SDS011;34352;51.084;3.712;2022-11-04T14:23:58;6.10;;;1.30;;
48574;SDS011;34352;51.084;3.712;2022-11-04T14:26:25;11.60;;;1.63;;
48574;SDS011;34352;51.084;3.712;2022-11-04T14:29:01;9.55;;;2.28;;
48574;SDS011;34352;51.084;3.712;2022-11-04T14:31:33;6.90;;;1.58;;
48574;SDS011;34352;51.084;3.712;2022-11-04T14:34:01;4.55;;;1.42;;
48574;SDS011;34352;51.084;3.712;2022-11-04T14:41:48;3.40;;;1.33;;
48574;SDS011;34352;51.084;3.712;2022-11-04T14:47:23;5.95;;;1.85;;
48574;SDS011;34352;51.084;3.712;2022-11-04T14:52:43;4.38;;;1.80;;
48574;SDS011;34352;51.084;3.712;2022-11-04T14:57:41;7.72;;;1.83;;
48574;SDS011;34352;51.084;3.712;2022-11-04T15:02:58;11.55;;;2.63;;
48574;SDS011;34352;51.084;3.712;2022-11-04T15:05:25;7.22;;;2.50;;
48574;SDS011;34352;51.084;3.712;2022-11-04T15:07:53;11.05;;;3.47;;
48574;SDS011;34352;51.084;3.712;2022-11-04T15:12:52;9.55;;;5.60;;
48574;SDS011;34352;51.084;3.712;2022-11-04T15:17:49;13.25;;;8.20;;
48574;SDS011;34352;51.084;3.712;2022-11-04T15:20:20;11.38;;;5.10;;
48574;SDS011;34352;51.084;3.712;2022-11-04T15:22:48;6.97;;;3.80;;
48574;SDS011;34352;51.084;3.712;2022-11-04T15:25:14;15.85;;;6.75;;
48574;SDS011;34352;51.084;3.712;2022-11-04T15:27:40;8.35;;;4.20;;
48574;SDS011;34352;51.084;3.712;2022-11-04T15:30:15;7.90;;;3.55;;
48574;SDS011;34352;51.084;3.712;2022-11-04T15:32:51;10.73;;;4.75;;
48574;SDS011;34352;51.084;3.712;2022-11-04T15:35:24;9.23;;;3.90;;
48574;SDS011;34352;51.084;3.712;2022-11-04T15:37:53;14.77;;;4.90;;
48574;SDS011;34352;51.084;3.712;2022-11-04T15:40:19;13.45;;;7.03;;
48574;SDS011;34352;51.084;3.712;2022-11-04T15:42:46;14.30;;;5.85;;
48574;SDS011;34352;51.084;3.712;2022-11-04T15:51:04;12.05;;;5.70;;
48574;SDS011;34352;51.084;3.712;2022-11-04T15:53:47;8.23;;;3.97;;
48574;SDS011;34352;51.084;3.712;2022-11-04T15:56:18;12.70;;;6.85;;
48574;SDS011;34352;51.084;3.712;2022-11-04T15:59:07;14.38;;;8.25;;
48574;SDS011;34352;51.084;3.712;2022-11-04T16:01:45;17.75;;;8.15;;
48574;SDS011;34352;51.084;3.712;2022-11-04T16:04:12;14.55;;;8.73;;
48574;SDS011;34352;51.084;3.712;2022-11-04T16:06:41;18.33;;;9.05;;
48574;SDS011;34352;51.084;3.712;2022-11-04T16:11:35;23.48;;;14.50;;
48574;SDS011;34352;51.084;3.712;2022-11-04T16:16:48;26.23;;;16.05;;
48574;SDS011;34352;51.084;3.712;2022-11-04T16:19:17;29.80;;;16.80;;
48574;SDS011;34352;51.084;3.712;2022-11-04T16:21:45;14.70;;;8.10;;
48574;SDS011;34352;51.084;3.712;2022-11-04T16:24:22;14.98;;;8.15;;
48574;SDS011;34352;51.084;3.712;2022-11-04T16:26:50;19.70;;;9.73;;
48574;SDS011;34352;51.084;3.712;2022-11-04T16:29:24;23.87;;;11.83;;
48574;SDS011;34352;51.084;3.712;2022-11-04T16:32:13;22.98;;;10.68;;
48574;SDS011;34352;51.084;3.712;2022-11-04T16:34:49;29.05;;;15.90;;
48574;SDS011;34352;51.084;3.712;2022-11-04T16:37:16;42.72;;;23.27;;
48574;SDS011;34352;51.084;3.712;2022-11-04T16:39:42;21.55;;;12.45;;
48574;SDS011;34352;51.084;3.712;2022-11-04T16:42:10;17.63;;;9.80;;
48574;SDS011;34352;51.084;3.712;2022-11-04T16:44:38;16.02;;;7.78;;
48574;SDS011;34352;51.084;3.712;2022-11-04T16:47:05;15.55;;;10.13;;
48574;SDS011;34352;51.084;3.712;2022-11-04T16:49:30;17.48;;;10.00;;
48574;SDS011;34352;51.084;3.712;2022-11-04T16:52:00;25.02;;;13.43;;
48574;SDS011;34352;51.084;3.712;2022-11-04T16:54:29;28.00;;;16.02;;
48574;SDS011;34352;51.084;3.712;2022-11-04T16:56:55;29.50;;;18.88;;
48574;SDS011;34352;51.084;3.712;2022-11-04T16:59:21;59.30;;;25.85;;
48574;SDS011;34352;51.084;3.712;2022-11-04T17:01:47;34.20;;;24.02;;
48574;SDS011;34352;51.084;3.712;2022-11-04T17:04:13;31.90;;;24.13;;
48574;SDS011;34352;51.084;3.712;2022-11-04T17:06:38;36.63;;;26.17;;
48574;SDS011;34352;51.084;3.712;2022-11-04T17:09:21;40.92;;;27.67;;
48574;SDS011;34352;51.084;3.712;2022-11-04T17:11:48;41.92;;;24.65;;
48574;SDS011;34352;51.084;3.712;2022-11-04T17:14:14;36.15;;;22.45;;
48574;SDS011;34352;51.084;3.712;2022-11-04T17:16:40;31.48;;;22.77;;
48574;SDS011;34352;51.084;3.712;2022-11-04T17:19:08;27.10;;;19.23;;
48574;SDS011;34352;51.084;3.712;2022-11-04T17:21:40;32.00;;;18.92;;
48574;SDS011;34352;51.084;3.712;2022-11-04T17:24:07;25.23;;;17.20;;
48574;SDS011;34352;51.084;3.712;2022-11-04T17:26:34;28.55;;;17.70;;
48574;SDS011;34352;51.084;3.712;2022-11-04T17:28:59;24.58;;;15.80;;
48574;SDS011;34352;51.084;3.712;2022-11-04T17:31:25;24.30;;;16.13;;
48574;SDS011;34352;51.084;3.712;2022-11-04T17:33:52;26.25;;;14.48;;
48574;SDS011;34352;51.084;3.712;2022-11-04T17:36:18;21.77;;;13.40;;
48574;SDS011;34352;51.084;3.712;2022-11-04T17:38:45;27.35;;;15.32;;
48574;SDS011;34352;51.084;3.712;2022-11-04T17:41:10;28.17;;;15.52;;
48574;SDS011;34352;51.084;3.712;2022-11-04T17:43:55;27.20;;;14.68;;
48574;SDS011;34352;51.084;3.712;2022-11-04T17:46:23;35.08;;;19.30;;
48574;SDS011;34352;51.084;3.712;2022-11-04T17:49:02;33.22;;;21.00;;
48574;SDS011;34352;51.084;3.712;2022-11-04T17:51:32;45.15;;;26.20;;
48574;SDS011;34352;51.084;3.712;2022-11-04T17:54:00;35.40;;;23.77;;
48574;SDS011;34352;51.084;3.712;2022-11-04T17:56:25;34.38;;;24.48;;
48574;SDS011;34352;51.084;3.712;2022-11-04T17:58:51;34.90;;;23.48;;
48574;SDS011;34352;51.084;3.712;2022-11-04T18:01:19;33.47;;;22.45;;
48574;SDS011;34352;51.084;3.712;2022-11-04T18:03:49;33.63;;;23.58;;
48574;SDS011;34352;51.084;3.712;2022-11-04T18:06:16;36.05;;;25.02;;
48574;SDS011;34352;51.084;3.712;2022-11-04T18:08:42;33.83;;;25.67;;
48574;SDS011;34352;51.084;3.712;2022-11-04T18:11:08;37.28;;;26.27;;
48574;SDS011;34352;51.084;3.712;2022-11-04T18:13:35;33.17;;;18.00;;
48574;SDS011;34352;51.084;3.712;2022-11-04T18:18:56;29.77;;;16.67;;
48574;SDS011;34352;51.084;3.712;2022-11-04T18:21:23;23.90;;;15.50;;
48574;SDS011;34352;51.084;3.712;2022-11-04T18:23:50;34.08;;;17.83;;
48574;SDS011;34352;51.084;3.712;2022-11-04T18:26:16;29.95;;;18.05;;
48574;SDS011;34352;51.084;3.712;2022-11-04T18:28:43;30.20;;;16.42;;
48574;SDS011;34352;51.084;3.712;2022-11-04T18:31:09;29.42;;;16.92;;
48574;SDS011;34352;51.084;3.712;2022-11-04T18:33:37;24.98;;;15.45;;
48574;SDS011;34352;51.084;3.712;2022-11-04T18:36:07;32.85;;;16.90;;